Time;durP1;ratioP1;P1;durP2;ratioP2;P2;SDS_P1;SDS_P2;PMS_P1;PMS_P2;Temp;Humidity;BMP_temperature;BMP_pressure;BME280_temperature;BME280_humidity;BME280_pressure;Samples;Min_cycle;Max_cycle;Signal;HPM_P1;HPM_P2
2022/03/16 00:00:56;;;;;;;117.93;56.10;;;;;;;;;;5095300;28;20078;-65
2022/03/16 00:03:22;;;;;;;74.55;39.17;;;;;;;;;;5095237;28;20032;-65
2022/03/16 00:05:48;;;;;;;75.28;38.65;;;;;;;;;;5077120;28;20460;-65
2022/03/16 00:08:14;;;;;;;70.88;37.25;;;;;;;;;;5095411;28;20391;-64
2022/03/16 00:10:40;;;;;;;66.57;35.70;;;;;;;;;;5095349;28;20414;-64
2022/03/16 00:13:07;;;;;;;63.08;33.88;;;;;;;;;;5095038;28;20032;-64
2022/03/16 00:15:33;;;;;;;70.25;34.88;;;;;;;;;;5076852;28;20038;-65
2022/03/16 00:18:00;;;;;;;77.00;37.90;;;;;;;;;;5094225;28;20092;-64
2022/03/16 00:20:26;;;;;;;84.25;41.60;;;;;;;;;;5094917;28;20035;-65
2022/03/16 00:22:52;;;;;;;108.38;47.60;;;;;;;;;;5094869;28;20023;-64
2022/03/16 00:25:19;;;;;;;122.30;53.13;;;;;;;;;;5076704;28;20077;-64
2022/03/16 00:27:45;;;;;;;120.65;53.88;;;;;;;;;;5094767;28;20429;-65
2022/03/16 00:30:12;;;;;;;121.45;54.08;;;;;;;;;;5094695;28;20032;-65
2022/03/16 00:32:41;;;;;;;142.43;59.08;;;;;;;;;;5094643;28;20024;-64
2022/03/16 00:35:08;;;;;;;117.97;51.20;;;;;;;;;;5094672;28;20027;-64
2022/03/16 00:37:34;;;;;;;126.35;52.05;;;;;;;;;;5094462;28;20123;-64
2022/03/16 00:40:01;;;;;;;123.88;53.95;;;;;;;;;;5094870;28;20032;-65
2022/03/16 00:42:27;;;;;;;125.38;56.20;;;;;;;;;;5093999;28;20483;-65
2022/03/16 00:45:00;;;;;;;127.88;54.92;;;;;;;;;;5094465;28;20107;-66
2022/03/16 00:47:26;;;;;;;112.72;52.10;;;;;;;;;;5094451;28;20035;-65
2022/03/16 00:49:52;;;;;;;123.55;53.20;;;;;;;;;;5094338;28;20084;-65
2022/03/16 00:52:19;;;;;;;107.78;52.35;;;;;;;;;;5094299;28;20027;-63
2022/03/16 00:54:45;;;;;;;124.78;57.00;;;;;;;;;;5094307;28;20074;-63
2022/03/16 00:57:11;;;;;;;109.10;52.65;;;;;;;;;;5075924;28;20509;-63
2022/03/16 00:59:39;;;;;;;105.95;50.58;;;;;;;;;;5093849;28;20552;-63
2022/03/16 01:02:05;;;;;;;103.50;51.17;;;;;;;;;;5094141;28;20353;-63
2022/03/16 01:04:31;;;;;;;98.25;48.70;;;;;;;;;;5094145;28;20032;-63
2022/03/16 01:06:58;;;;;;;101.55;46.85;;;;;;;;;;5094053;28;20122;-63
2022/03/16 01:09:24;;;;;;;94.45;44.03;;;;;;;;;;5093960;28;20028;-65
2022/03/16 01:11:50;;;;;;;91.05;43.65;;;;;;;;;;5093948;28;20028;-65
2022/03/16 01:14:18;;;;;;;86.57;42.22;;;;;;;;;;5093881;28;20081;-64
2022/03/16 01:16:44;;;;;;;92.47;44.78;;;;;;;;;;5093779;28;20028;-65
2022/03/16 01:19:14;;;;;;;120.97;46.42;;;;;;;;;;5093829;28;20028;-65
2022/03/16 01:21:41;;;;;;;120.43;47.30;;;;;;;;;;5093774;28;20086;-65
2022/03/16 01:24:07;;;;;;;107.25;46.50;;;;;;;;;;5075522;28;20086;-64
2022/03/16 01:26:34;;;;;;;113.55;50.38;;;;;;;;;;5093742;28;20038;-65
2022/03/16 01:29:01;;;;;;;104.05;53.67;;;;;;;;;;5092857;28;20453;-64
2022/03/16 01:31:28;;;;;;;102.50;49.85;;;;;;;;;;5093499;28;20031;-64
2022/03/16 01:33:54;;;;;;;102.00;49.42;;;;;;;;;;5093580;28;20032;-65
2022/03/16 01:36:21;;;;;;;98.35;48.08;;;;;;;;;;5075267;28;20498;-65
2022/03/16 01:38:47;;;;;;;94.05;48.50;;;;;;;;;;5093452;28;20024;-65
2022/03/16 01:41:14;;;;;;;113.63;55.15;;;;;;;;;;5093466;28;20027;-64
2022/03/16 01:43:41;;;;;;;112.88;54.40;;;;;;;;;;5074764;28;20059;-64
2022/03/16 01:46:07;;;;;;;109.38;53.72;;;;;;;;;;5093349;28;20028;-64
2022/03/16 01:48:33;;;;;;;108.60;54.97;;;;;;;;;;5093402;28;20060;-64
2022/03/16 01:51:00;;;;;;;93.20;48.47;;;;;;;;;;5093349;28;20024;-64
2022/03/16 01:53:26;;;;;;;104.53;51.80;;;;;;;;;;5075117;28;20036;-64
2022/03/16 01:55:53;;;;;;;97.80;47.88;;;;;;;;;;5093236;28;20077;-64
2022/03/16 01:58:20;;;;;;;107.13;51.65;;;;;;;;;;5093539;28;20032;-64
2022/03/16 02:00:48;;;;;;;105.32;49.50;;;;;;;;;;5093498;28;20031;-64
2022/03/16 02:03:15;;;;;;;105.70;52.55;;;;;;;;;;5093184;28;20026;-64
2022/03/16 02:05:41;;;;;;;105.15;53.38;;;;;;;;;;5092951;28;20381;-65
2022/03/16 02:08:08;;;;;;;102.50;52.00;;;;;;;;;;5093384;28;20372;-64
2022/03/16 02:10:34;;;;;;;107.07;51.42;;;;;;;;;;5074997;28;20492;-64
2022/03/16 02:13:00;;;;;;;92.53;48.40;;;;;;;;;;5093072;28;20024;-64
2022/03/16 02:15:27;;;;;;;116.60;55.70;;;;;;;;;;5074959;28;20059;-64
2022/03/16 02:17:56;;;;;;;113.38;55.17;;;;;;;;;;5092968;28;20103;-64
2022/03/16 02:20:23;;;;;;;118.72;55.70;;;;;;;;;;5074794;28;20032;-64
2022/03/16 02:22:56;;;;;;;122.03;56.13;;;;;;;;;;5074894;28;20025;-63
2022/03/16 02:25:23;;;;;;;113.30;53.35;;;;;;;;;;5093041;28;20028;-64
2022/03/16 02:27:49;;;;;;;101.13;48.72;;;;;;;;;;5092962;28;20062;-64
2022/03/16 02:30:16;;;;;;;88.85;44.38;;;;;;;;;;5092938;28;20030;-63
2022/03/16 02:32:42;;;;;;;90.70;44.88;;;;;;;;;;5074716;28;20034;-64
2022/03/16 02:35:08;;;;;;;88.43;44.35;;;;;;;;;;5092883;28;20034;-64
2022/03/16 02:37:41;;;;;;;133.13;58.55;;;;;;;;;;5092806;28;20063;-64
2022/03/16 02:40:09;;;;;;;96.25;48.08;;;;;;;;;;5092877;28;20095;-64
2022/03/16 02:42:36;;;;;;;91.20;46.35;;;;;;;;;;5096655;28;20031;-64
2022/03/16 02:45:03;;;;;;;86.40;43.10;;;;;;;;;;5097079;28;20495;-66
2022/03/16 02:47:29;;;;;;;81.05;41.78;;;;;;;;;;5096781;28;20475;-65
2022/03/16 02:49:55;;;;;;;86.13;42.17;;;;;;;;;;5078455;28;20074;-65
2022/03/16 02:52:22;;;;;;;89.10;43.97;;;;;;;;;;5096600;28;20115;-65
2022/03/16 02:54:49;;;;;;;86.82;41.95;;;;;;;;;;5096578;28;20024;-65
2022/03/16 02:57:16;;;;;;;92.43;42.70;;;;;;;;;;5096499;28;20039;-63
2022/03/16 02:59:45;;;;;;;90.28;44.53;;;;;;;;;;5096480;28;20020;-67
2022/03/16 03:02:11;;;;;;;91.50;45.47;;;;;;;;;;5096453;28;20028;-67
2022/03/16 03:04:38;;;;;;;103.22;47.70;;;;;;;;;;5096348;28;20028;-67
2022/03/16 03:07:05;;;;;;;92.20;46.13;;;;;;;;;;5096675;28;20165;-67
2022/03/16 03:09:31;;;;;;;91.15;45.30;;;;;;;;;;5078030;28;20036;-67
2022/03/16 03:11:59;;;;;;;84.65;43.47;;;;;;;;;;5096265;28;20026;-67
2022/03/16 03:14:28;;;;;;;79.78;41.65;;;;;;;;;;5096162;28;20035;-67
2022/03/16 03:16:54;;;;;;;86.68;42.63;;;;;;;;;;5096125;28;20075;-68
2022/03/16 03:19:21;;;;;;;83.57;42.63;;;;;;;;;;5096378;28;20024;-65
2022/03/16 03:21:48;;;;;;;79.88;41.83;;;;;;;;;;5095781;28;20361;-67
2022/03/16 03:24:14;;;;;;;93.43;47.05;;;;;;;;;;5096310;28;20024;-68
2022/03/16 03:26:40;;;;;;;92.18;47.50;;;;;;;;;;5095998;28;20028;-67
2022/03/16 03:29:07;;;;;;;82.05;40.95;;;;;;;;;;5095963;28;20036;-65
2022/03/16 03:31:34;;;;;;;88.35;43.00;;;;;;;;;;5095881;28;20032;-67
2022/03/16 03:34:01;;;;;;;90.00;42.25;;;;;;;;;;5095851;28;20028;-67
2022/03/16 03:36:27;;;;;;;80.57;38.72;;;;;;;;;;5077656;28;20086;-67
2022/03/16 03:38:54;;;;;;;82.38;38.38;;;;;;;;;;5095778;28;20052;-67
2022/03/16 03:41:20;;;;;;;77.15;39.10;;;;;;;;;;5077541;28;20034;-67
2022/03/16 03:43:46;;;;;;;77.55;37.63;;;;;;;;;;5095592;28;20523;-67
2022/03/16 03:46:12;;;;;;;80.97;38.10;;;;;;;;;;5095642;28;20024;-67
2022/03/16 03:48:38;;;;;;;78.20;37.38;;;;;;;;;;5095801;28;20038;-67
2022/03/16 03:51:05;;;;;;;76.18;37.78;;;;;;;;;;5095537;28;20032;-66
2022/03/16 03:53:31;;;;;;;77.97;37.92;;;;;;;;;;5094388;28;20095;-65
2022/03/16 03:55:57;;;;;;;86.63;43.13;;;;;;;;;;5095641;28;20032;-66
2022/03/16 03:58:23;;;;;;;96.50;48.83;;;;;;;;;;5095408;28;20034;-63
2022/03/16 04:00:49;;;;;;;99.75;50.05;;;;;;;;;;5095303;28;20031;-65
2022/03/16 04:03:16;;;;;;;101.10;51.47;;;;;;;;;;5095335;28;20028;-64
2022/03/16 04:05:43;;;;;;;90.60;40.53;;;;;;;;;;5095236;28;20027;-65
2022/03/16 04:08:09;;;;;;;81.80;41.00;;;;;;;;;;5077041;28;20024;-65
2022/03/16 04:10:36;;;;;;;80.78;38.03;;;;;;;;;;5094847;28;20092;-63
2022/03/16 04:13:03;;;;;;;75.70;38.35;;;;;;;;;;5095047;28;20028;-63
2022/03/16 04:15:29;;;;;;;82.25;38.35;;;;;;;;;;5076890;28;20120;-63
2022/03/16 04:17:55;;;;;;;78.53;36.30;;;;;;;;;;5094992;28;20028;-63
2022/03/16 04:20:22;;;;;;;90.57;37.35;;;;;;;;;;5094892;28;20036;-63
2022/03/16 04:22:48;;;;;;;96.70;39.78;;;;;;;;;;5094912;28;20028;-63
2022/03/16 04:25:14;;;;;;;81.70;37.13;;;;;;;;;;5076676;28;20054;-64
2022/03/16 04:27:41;;;;;;;103.78;37.15;;;;;;;;;;5094846;28;20111;-63
2022/03/16 04:30:07;;;;;;;86.47;36.78;;;;;;;;;;5094770;28;20461;-62
2022/03/16 04:32:34;;;;;;;110.15;36.60;;;;;;;;;;5094929;28;20107;-62
2022/03/16 04:35:00;;;;;;;94.15;34.70;;;;;;;;;;5076456;28;20031;-63
2022/03/16 04:37:26;;;;;;;80.43;34.80;;;;;;;;;;5094572;28;20040;-63
2022/03/16 04:39:52;;;;;;;95.45;36.30;;;;;;;;;;5094509;28;20384;-63
2022/03/16 04:42:18;;;;;;;80.93;36.53;;;;;;;;;;5094536;28;20377;-64
2022/03/16 04:44:45;;;;;;;77.47;34.67;;;;;;;;;;5094497;28;20379;-63
2022/03/16 04:47:11;;;;;;;81.15;35.13;;;;;;;;;;5076246;28;20085;-64
2022/03/16 04:49:37;;;;;;;71.95;36.05;;;;;;;;;;5094914;28;20034;-64
2022/03/16 04:52:04;;;;;;;82.38;32.80;;;;;;;;;;5094317;28;20027;-64
2022/03/16 04:54:30;;;;;;;74.28;34.55;;;;;;;;;;5094246;28;20376;-64
2022/03/16 04:56:56;;;;;;;86.97;36.33;;;;;;;;;;5094145;28;20040;-64
2022/03/16 04:59:22;;;;;;;88.65;38.63;;;;;;;;;;5094157;28;20111;-64
2022/03/16 05:01:49;;;;;;;87.88;35.20;;;;;;;;;;5094131;28;20024;-64
2022/03/16 05:04:15;;;;;;;87.07;34.75;;;;;;;;;;5075718;28;20374;-64
2022/03/16 05:06:41;;;;;;;83.40;35.00;;;;;;;;;;5075874;28;20379;-64
2022/03/16 05:09:08;;;;;;;76.43;35.03;;;;;;;;;;5093958;28;20498;-64
2022/03/16 05:11:35;;;;;;;97.38;36.85;;;;;;;;;;5075740;28;20025;-63
2022/03/16 05:14:02;;;;;;;78.22;36.83;;;;;;;;;;5093897;28;20106;-63
2022/03/16 05:16:28;;;;;;;88.15;37.65;;;;;;;;;;5093783;28;20032;-63
2022/03/16 05:18:54;;;;;;;84.53;38.55;;;;;;;;;;5093809;28;20024;-63
2022/03/16 05:21:20;;;;;;;82.70;37.85;;;;;;;;;;5093792;28;20107;-65
2022/03/16 05:23:50;;;;;;;69.35;36.33;;;;;;;;;;5075477;28;20031;-63
2022/03/16 05:26:17;;;;;;;85.15;38.22;;;;;;;;;;5075383;28;20020;-64
2022/03/16 05:28:44;;;;;;;81.20;38.20;;;;;;;;;;5075375;28;20380;-65
2022/03/16 05:31:11;;;;;;;112.03;38.70;;;;;;;;;;5093528;28;20081;-66
2022/03/16 05:33:37;;;;;;;76.38;37.08;;;;;;;;;;5075266;28;20489;-66
2022/03/16 05:36:04;;;;;;;74.03;35.50;;;;;;;;;;5075311;28;20439;-65
2022/03/16 05:38:31;;;;;;;97.95;46.10;;;;;;;;;;5093527;28;20487;-65
2022/03/16 05:40:57;;;;;;;89.45;41.10;;;;;;;;;;5093212;28;20105;-65
2022/03/16 05:43:23;;;;;;;113.30;47.20;;;;;;;;;;5092680;28;20039;-65
2022/03/16 05:45:50;;;;;;;94.13;41.85;;;;;;;;;;5074834;28;20058;-65
2022/03/16 05:48:16;;;;;;;90.68;39.15;;;;;;;;;;5093006;28;20027;-65
2022/03/16 05:50:45;;;;;;;76.75;38.65;;;;;;;;;;5093127;28;20107;-64
2022/03/16 05:53:11;;;;;;;71.90;37.97;;;;;;;;;;5093301;28;20158;-64
2022/03/16 05:55:38;;;;;;;87.18;40.17;;;;;;;;;;5093251;28;20039;-65
2022/03/16 05:58:04;;;;;;;88.93;39.67;;;;;;;;;;5074713;28;20032;-66
2022/03/16 06:00:31;;;;;;;149.80;42.05;;;;;;;;;;5093181;28;20049;-66
2022/03/16 06:02:58;;;;;;;107.10;40.03;;;;;;;;;;5074982;28;20031;-65
2022/03/16 06:05:24;;;;;;;98.40;39.80;;;;;;;;;;5093093;28;20103;-66
2022/03/16 06:07:50;;;;;;;109.50;42.58;;;;;;;;;;5074864;28;20468;-65
2022/03/16 06:10:18;;;;;;;90.40;39.95;;;;;;;;;;5074876;28;20032;-65
2022/03/16 06:12:51;;;;;;;85.63;40.58;;;;;;;;;;5074799;28;20032;-64
2022/03/16 06:15:17;;;;;;;93.50;40.78;;;;;;;;;;5092945;28;20492;-66
2022/03/16 06:17:43;;;;;;;79.00;40.83;;;;;;;;;;5097235;28;20077;-66
2022/03/16 06:20:10;;;;;;;80.65;39.42;;;;;;;;;;5097532;28;20024;-66
2022/03/16 06:22:36;;;;;;;97.35;40.97;;;;;;;;;;5078910;28;20157;-64
2022/03/16 06:25:02;;;;;;;98.47;40.28;;;;;;;;;;5097011;28;20027;-65
2022/03/16 06:27:29;;;;;;;106.75;41.53;;;;;;;;;;5078803;28;20028;-65
2022/03/16 06:29:55;;;;;;;104.00;43.55;;;;;;;;;;5093588;28;20024;-65
2022/03/16 06:32:21;;;;;;;99.93;42.42;;;;;;;;;;5096134;28;20107;-65
2022/03/16 06:34:47;;;;;;;112.55;46.92;;;;;;;;;;5096102;28;20103;-65
2022/03/16 06:37:14;;;;;;;115.40;44.28;;;;;;;;;;5078021;28;20059;-66
2022/03/16 06:39:41;;;;;;;116.53;52.63;;;;;;;;;;5096300;28;20016;-66
2022/03/16 06:42:07;;;;;;;146.57;54.25;;;;;;;;;;5078177;28;20119;-66
2022/03/16 06:44:35;;;;;;;186.60;86.97;;;;;;;;;;5095233;28;20474;-64
2022/03/16 06:47:01;;;;;;;188.27;84.03;;;;;;;;;;5095643;28;20055;-64
2022/03/16 06:49:27;;;;;;;170.73;83.45;;;;;;;;;;5095971;28;20040;-65
2022/03/16 06:51:53;;;;;;;206.10;87.85;;;;;;;;;;5096364;28;20032;-66
2022/03/16 06:54:19;;;;;;;169.30;82.32;;;;;;;;;;5096266;28;20032;-65
2022/03/16 06:56:46;;;;;;;126.25;53.90;;;;;;;;;;5096465;28;20070;-65
2022/03/16 06:59:12;;;;;;;107.45;45.47;;;;;;;;;;5095902;28;20024;-66
2022/03/16 07:01:38;;;;;;;106.88;47.47;;;;;;;;;;5096030;28;20483;-65
2022/03/16 07:04:04;;;;;;;155.45;53.55;;;;;;;;;;5095868;28;20379;-64
2022/03/16 07:06:31;;;;;;;158.85;54.45;;;;;;;;;;5095791;28;20036;-65
2022/03/16 07:08:57;;;;;;;145.05;55.38;;;;;;;;;;5096624;28;20032;-63
2022/03/16 07:11:23;;;;;;;162.00;58.70;;;;;;;;;;5096073;28;20024;-64
2022/03/16 07:16:35;;;;;;;178.70;80.40;;;;;;;;;;5095300;28;20079;-64
2022/03/16 07:19:01;;;;;;;164.98;79.22;;;;;;;;;;5095821;28;20044;-64
2022/03/16 07:21:28;;;;;;;152.18;72.10;;;;;;;;;;5096162;28;20051;-66
2022/03/16 07:23:54;;;;;;;137.55;69.68;;;;;;;;;;5077669;28;20035;-65
2022/03/16 07:26:20;;;;;;;143.70;68.60;;;;;;;;;;5094925;28;20428;-66
2022/03/16 07:28:46;;;;;;;150.02;69.75;;;;;;;;;;5095767;28;20028;-68
2022/03/16 07:31:12;;;;;;;131.23;64.85;;;;;;;;;;5095743;28;20024;-65
2022/03/16 07:33:39;;;;;;;134.60;62.35;;;;;;;;;;5095742;28;20390;-65
2022/03/16 07:36:05;;;;;;;120.65;53.97;;;;;;;;;;5095594;28;20020;-64
2022/03/16 07:38:31;;;;;;;116.28;61.35;;;;;;;;;;5077296;28;20062;-64
2022/03/16 07:40:59;;;;;;;135.38;60.38;;;;;;;;;;5095636;28;20104;-64
2022/03/16 07:43:25;;;;;;;107.70;55.78;;;;;;;;;;5095453;28;20475;-64
2022/03/16 07:45:52;;;;;;;77.90;40.53;;;;;;;;;;5095090;28;20063;-64
2022/03/16 07:48:18;;;;;;;64.93;33.97;;;;;;;;;;5095490;28;20023;-65
2022/03/16 07:50:45;;;;;;;69.07;35.08;;;;;;;;;;5094770;28;20023;-67
2022/03/16 07:53:11;;;;;;;77.95;34.00;;;;;;;;;;5094990;28;20095;-65
2022/03/16 07:55:37;;;;;;;67.78;32.75;;;;;;;;;;5095204;28;20047;-66
2022/03/16 07:58:03;;;;;;;71.25;32.35;;;;;;;;;;5094959;28;20036;-64
2022/03/16 08:00:30;;;;;;;59.25;31.45;;;;;;;;;;5094815;28;20032;-64
2022/03/16 08:02:57;;;;;;;65.80;29.50;;;;;;;;;;5095053;28;20089;-65
2022/03/16 08:05:23;;;;;;;64.90;28.08;;;;;;;;;;5076538;28;20056;-65
2022/03/16 08:07:50;;;;;;;47.13;22.42;;;;;;;;;;5094921;28;20028;-65
2022/03/16 08:10:16;;;;;;;40.65;19.40;;;;;;;;;;5094948;28;20074;-65
2022/03/16 08:12:43;;;;;;;47.78;17.98;;;;;;;;;;5094664;28;20399;-65
2022/03/16 08:15:09;;;;;;;46.55;18.85;;;;;;;;;;5094835;28;20452;-64
2022/03/16 08:17:35;;;;;;;41.92;17.65;;;;;;;;;;5094436;28;20468;-69
2022/03/16 08:20:01;;;;;;;97.43;24.23;;;;;;;;;;5094268;28;20032;-66
2022/03/16 08:22:29;;;;;;;71.03;24.25;;;;;;;;;;5094049;28;20024;-66
2022/03/16 08:24:56;;;;;;;36.03;19.88;;;;;;;;;;5076235;28;20069;-66
2022/03/16 08:27:22;;;;;;;62.83;28.83;;;;;;;;;;5094295;28;20057;-65
2022/03/16 08:29:49;;;;;;;44.70;19.50;;;;;;;;;;5094676;28;20047;-64
2022/03/16 08:32:15;;;;;;;52.08;21.08;;;;;;;;;;5094457;28;20025;-65
2022/03/16 08:34:41;;;;;;;49.00;20.83;;;;;;;;;;5094202;28;20472;-66
2022/03/16 08:37:07;;;;;;;47.63;18.33;;;;;;;;;;5093695;28;20036;-67
2022/03/16 08:39:33;;;;;;;44.30;19.02;;;;;;;;;;5093377;28;20103;-67
2022/03/16 08:41:59;;;;;;;39.92;19.08;;;;;;;;;;5093922;28;20012;-66
2022/03/16 08:44:26;;;;;;;41.65;19.58;;;;;;;;;;5056289;28;20049;-67
2022/03/16 08:46:52;;;;;;;53.90;20.42;;;;;;;;;;5053582;28;20044;-65
2022/03/16 08:49:19;;;;;;;42.22;17.55;;;;;;;;;;5054003;28;20048;-65
2022/03/16 08:51:45;;;;;;;77.72;23.90;;;;;;;;;;5052550;28;20411;-66
2022/03/16 08:54:11;;;;;;;43.50;20.92;;;;;;;;;;5053818;28;20284;-66
2022/03/16 08:56:38;;;;;;;38.15;19.27;;;;;;;;;;5053896;28;20025;-67
2022/03/16 08:59:04;;;;;;;50.13;17.35;;;;;;;;;;5053518;28;20064;-67
2022/03/16 09:01:30;;;;;;;31.45;15.95;;;;;;;;;;5052364;28;20024;-64
2022/03/16 09:03:56;;;;;;;48.25;20.13;;;;;;;;;;5053067;28;20075;-66
2022/03/16 09:06:22;;;;;;;35.60;17.63;;;;;;;;;;5051353;28;20036;-67
2022/03/16 09:08:48;;;;;;;42.22;14.55;;;;;;;;;;5053446;28;20036;-65
2022/03/16 09:11:14;;;;;;;36.00;12.95;;;;;;;;;;5052112;28;20029;-65
2022/03/16 09:13:40;;;;;;;52.40;11.30;;;;;;;;;;5052063;28;20080;-66
2022/03/16 09:16:07;;;;;;;36.60;9.52;;;;;;;;;;5052003;28;20036;-66
2022/03/16 09:18:33;;;;;;;25.88;10.02;;;;;;;;;;5053137;28;20029;-66
2022/03/16 09:21:00;;;;;;;23.35;8.07;;;;;;;;;;5051942;28;20424;-66
2022/03/16 09:23:31;;;;;;;22.85;9.50;;;;;;;;;;5053389;28;20481;-65
2022/03/16 09:25:57;;;;;;;23.88;10.68;;;;;;;;;;5051277;28;20056;-67
2022/03/16 09:28:23;;;;;;;27.23;10.10;;;;;;;;;;5051634;28;20436;-66
2022/03/16 09:30:49;;;;;;;38.92;12.75;;;;;;;;;;5053154;28;20032;-67
2022/03/16 09:33:17;;;;;;;32.78;11.93;;;;;;;;;;5053180;28;20066;-67
2022/03/16 09:35:44;;;;;;;33.90;12.07;;;;;;;;;;5053117;28;20043;-66
2022/03/16 09:38:12;;;;;;;19.30;10.32;;;;;;;;;;5052708;28;20070;-65
2022/03/16 09:40:38;;;;;;;39.13;11.55;;;;;;;;;;5032523;28;20483;-70
2022/03/16 09:43:10;;;;;;;27.48;9.40;;;;;;;;;;5042457;28;20080;-65
2022/03/16 09:45:43;;;;;;;30.60;11.50;;;;;;;;;;5054990;28;20028;-69
2022/03/16 09:48:10;;;;;;;20.50;9.38;;;;;;;;;;5072579;28;20032;-65
2022/03/16 09:50:37;;;;;;;28.33;10.90;;;;;;;;;;5072105;28;20070;-65
2022/03/16 09:53:05;;;;;;;45.50;13.10;;;;;;;;;;5073014;28;20534;-65
2022/03/16 09:55:32;;;;;;;41.33;15.82;;;;;;;;;;5073005;28;20107;-65
2022/03/16 09:57:58;;;;;;;28.48;10.93;;;;;;;;;;5054503;28;20037;-66
2022/03/16 10:00:24;;;;;;;31.30;12.40;;;;;;;;;;5073103;28;20126;-66
2022/03/16 10:02:52;;;;;;;18.63;10.52;;;;;;;;;;5072810;28;20069;-65
2022/03/16 10:05:21;;;;;;;27.98;11.80;;;;;;;;;;5054721;28;20025;-65
2022/03/16 10:07:48;;;;;;;35.95;14.10;;;;;;;;;;5072524;28;20020;-64
2022/03/16 10:13:14;;;;;;;53.60;24.35;;;;;;;;;;5072930;28;20040;-70
2022/03/16 10:15:40;;;;;;;41.55;16.70;;;;;;;;;;5073049;28;20035;-67
2022/03/16 10:18:06;;;;;;;29.00;10.57;;;;;;;;;;5054659;28;20127;-68
2022/03/16 10:20:32;;;;;;;17.25;9.93;;;;;;;;;;5054373;28;20107;-67
2022/03/16 10:22:58;;;;;;;18.02;10.63;;;;;;;;;;5072736;28;20020;-69
2022/03/16 10:25:25;;;;;;;19.48;10.38;;;;;;;;;;5072488;28;20013;-67
2022/03/16 10:27:52;;;;;;;18.38;10.07;;;;;;;;;;5072342;28;20423;-66
2022/03/16 10:30:20;;;;;;;22.60;10.15;;;;;;;;;;5072717;28;20163;-65
2022/03/16 10:32:55;;;;;;;18.98;10.38;;;;;;;;;;5072456;28;20021;-67
2022/03/16 10:35:23;;;;;;;21.23;10.73;;;;;;;;;;5072621;28;20024;-68
2022/03/16 10:37:50;;;;;;;19.00;8.65;;;;;;;;;;5072497;28;20024;-66
2022/03/16 10:40:20;;;;;;;19.77;9.00;;;;;;;;;;5072363;28;20017;-66
2022/03/16 10:48:20;;;;;;;23.35;11.55;;;;;;;;;;5090196;28;20065;-67
2022/03/16 10:50:47;;;;;;;25.50;13.07;;;;;;;;;;5092792;28;20372;-64
2022/03/16 10:53:14;;;;;;;23.20;10.05;;;;;;;;;;5092571;28;20020;-66
2022/03/16 10:55:41;;;;;;;36.03;13.02;;;;;;;;;;5091832;28;20028;-67
2022/03/16 10:58:08;;;;;;;17.17;10.25;;;;;;;;;;5090430;28;20088;-67
2022/03/16 11:00:35;;;;;;;17.90;9.30;;;;;;;;;;5073795;28;20510;-67
2022/03/16 11:03:03;;;;;;;15.60;9.52;;;;;;;;;;5094804;28;20041;-65
2022/03/16 11:05:29;;;;;;;31.40;9.32;;;;;;;;;;5096324;28;20031;-68
2022/03/16 11:07:55;;;;;;;13.38;8.15;;;13.70;82.80;;;;;;5095859;28;20028;-67
2022/03/16 11:10:22;;;;;;;25.73;8.38;;;13.80;83.20;;;;;;5096235;28;20127;-67
2022/03/16 11:15:33;;;;;;;17.58;9.68;;;;;;;;;;5096108;28;20061;-70
2022/03/16 11:17:59;;;;;;;17.85;9.02;;;;;;;;;;5077812;28;20040;-68
2022/03/16 11:20:26;;;;;;;14.52;7.20;;;;;;;;;;5095847;28;20046;-66
2022/03/16 11:25:58;;;;;;;18.15;9.02;;;13.60;88.80;;;;;;5095650;28;20031;-66
2022/03/16 11:28:56;;;;;;;16.63;8.45;;;13.60;89.20;;;;;;5095526;28;20036;-66
2022/03/16 11:31:27;;;;;;;19.80;7.53;;;13.60;89.30;;;;;;5052497;28;20484;-66
2022/03/16 11:33:53;;;;;;;18.40;9.15;;;13.60;90.00;;;;;;5094923;28;20406;-66
2022/03/16 11:36:38;;;;;;;12.55;7.90;;;;;;;;;;5095590;28;20113;-66
2022/03/16 11:39:14;;;;;;;16.58;9.63;;;;;;;;;;5095554;28;20111;-64
2022/03/16 11:41:47;;;;;;;12.68;8.73;;;;;;;;;;5095449;28;20036;-65
2022/03/16 11:44:25;;;;;;;16.20;9.63;;;;;;;;;;5094542;28;20431;-64
2022/03/16 11:46:52;;;;;;;16.63;9.52;;;;;;;;;;5094773;28;20056;-65
2022/03/16 11:49:29;;;;;;;13.32;8.95;;;;;;;;;;5076925;28;20379;-67
2022/03/16 11:52:02;;;;;;;15.95;9.60;;;;;;;;;;5077145;28;20051;-67
2022/03/16 11:54:51;;;;;;;18.10;10.57;;;;;;;;;;5077149;28;20024;-65
2022/03/16 11:57:36;;;;;;;18.92;10.68;;;;;;;;;;5095551;28;20119;-65
2022/03/16 12:00:12;;;;;;;19.85;9.63;;;;;;;;;;5076967;28;20028;-67
2022/03/16 12:02:39;;;;;;;16.50;10.38;;;;;;;;;;5076893;28;20020;-65
2022/03/16 12:05:05;;;;;;;26.88;14.00;;;;;;;;;;5094045;28;20042;-66
2022/03/16 12:07:35;;;;;;;23.20;10.55;;;;;;;;;;5076111;28;20036;-65
2022/03/16 12:10:03;;;;;;;20.80;11.23;;;;;;;;;;5095349;28;20107;-65
2022/03/16 12:12:54;;;;;;;19.70;10.02;;;13.70;91.30;;;;;;5094987;28;20020;-66
2022/03/16 12:15:32;;;;;;;18.58;9.57;;;13.90;96.30;;;;;;5094681;28;20035;-67
2022/03/16 12:18:01;;;;;;;12.32;7.90;;;;;;;;;;5094921;28;20089;-68
2022/03/16 12:20:29;;;;;;;15.75;7.93;;;;;;;;;;5094609;28;20490;-67
2022/03/16 12:22:56;;;;;;;14.30;7.95;;;;;;;;;;5094743;28;20024;-67
2022/03/16 12:25:27;;;;;;;19.35;11.70;;;;;;;;;;5094266;28;20396;-67
2022/03/16 12:31:03;;;;;;;14.43;7.43;;;14.40;88.20;;;;;;5094253;28;20039;-65
2022/03/16 12:33:31;;;;;;;14.95;7.53;;;14.30;86.50;;;;;;5094300;28;20107;-67
2022/03/16 12:36:01;;;;;;;16.35;8.57;;;;;;;;;;5094397;28;20049;-66
2022/03/16 12:38:31;;;;;;;12.88;7.57;;;;;;;;;;5094441;28;20430;-65
2022/03/16 12:43:52;;;;;;;32.90;9.15;;;;;;;;;;5094500;28;20137;-68
2022/03/16 12:46:33;;;;;;;18.20;9.40;;;;;;;;;;5076101;28;20466;-67
2022/03/16 12:49:03;;;;;;;12.45;9.25;;;;;;;;;;5094112;28;20024;-67
2022/03/16 12:51:44;;;;;;;13.73;8.07;;;14.10;91.90;;;;;;5094343;28;20205;-67
2022/03/16 12:54:11;;;;;;;13.45;7.53;;;;;;;;;;5094340;28;20028;-67
2022/03/16 12:56:39;;;;;;;21.52;8.73;;;;;;;;;;5075537;28;20467;-69
2022/03/16 12:59:05;;;;;;;13.25;7.78;;;;;;;;;;5094067;28;20032;-66
2022/03/16 13:01:31;;;;;;;14.00;10.00;;;;;;;;;;5093633;28;20028;-67
2022/03/16 13:04:16;;;;;;;12.40;8.25;;;;;;;;;;5093846;28;20039;-67
2022/03/16 13:06:42;;;;;;;21.63;8.75;;;;;;;;;;5093577;28;20051;-68
2022/03/16 13:09:10;;;;;;;15.38;8.00;;;;;;;;;;5074010;28;20164;-69
2022/03/16 13:11:39;;;;;;;14.43;7.22;;;;;;;;;;5093860;28;20463;-69
2022/03/16 13:14:08;;;;;;;10.15;7.68;;;;;;;;;;5093561;28;20043;-69
2022/03/16 13:16:42;;;;;;;17.67;7.97;;;;;;;;;;5093530;28;20024;-68
2022/03/16 13:19:10;;;;;;;13.07;8.50;;;;;;;;;;5093567;28;20019;-67
2022/03/16 13:21:37;;;;;;;19.17;10.93;;;;;;;;;;5093465;28;20044;-69
2022/03/16 13:24:07;;;;;;;20.77;11.30;;;;;;;;;;5075034;28;20026;-68
2022/03/16 13:26:34;;;;;;;25.35;13.10;;;;;;;;;;5074763;28;20074;-69
2022/03/16 13:29:02;;;;;;;31.05;14.15;;;;;;;;;;5074550;28;20052;-69
2022/03/16 13:31:29;;;;;;;17.35;9.63;;;;;;;;;;5074270;28;20024;-68
2022/03/16 13:34:01;;;;;;;14.30;8.75;;;;;;;;;;5093316;28;20059;-68
2022/03/16 13:36:29;;;;;;;;;;;;;;;;;;5093350;28;20372;-68
2022/03/16 13:38:55;;;;;;;17.98;10.48;;;;;;;;;;5093334;28;19904;-67
2022/03/16 13:41:22;;;;;;;16.10;9.80;;;;;;;;;;5075099;28;20464;-67
2022/03/16 13:43:50;;;;;;;20.73;11.32;;;;;;;;;;5093011;28;20047;-67
2022/03/16 13:46:36;;;;;;;22.77;11.13;;;;;;;;;;5093284;28;20016;-67
2022/03/16 13:49:08;;;;;;;22.48;13.38;;;;;;;;;;5093327;28;20035;-67
2022/03/16 13:51:34;;;;;;;19.73;12.27;;;;;;;;;;5093369;28;20031;-65
2022/03/16 13:54:03;;;;;;;21.33;13.35;;;;;;;;;;5093021;28;20024;-68
2022/03/16 13:56:29;;;;;;;23.85;13.75;;;;;;;;;;5075072;28;20024;-65
2022/03/16 13:58:55;;;;;;;26.27;12.43;;;;;;;;;;5071949;28;20042;-65
2022/03/16 14:01:23;;;;;;;21.23;12.10;;;;;;;;;;5092610;28;20131;-65
2022/03/16 14:03:49;;;;;;;25.38;11.10;;;;;;;;;;5091865;28;20031;-66
2022/03/16 14:06:15;;;;;;;16.52;10.70;;;;;;;;;;5092823;28;20032;-65
2022/03/16 14:08:42;;;;;;;15.43;9.43;;;;;;;;;;5074810;28;20024;-65
2022/03/16 14:11:09;;;;;;;19.02;11.88;;;;;;;;;;5074383;28;20031;-67
2022/03/16 14:13:40;;;;;;;21.95;12.82;;;;;;;;;;5092831;28;20426;-67
2022/03/16 14:16:13;;;;;;;18.00;14.18;;;;;;;;;;5071455;28;20028;-68
2022/03/16 14:18:40;;;;;;;17.50;11.25;;;;;;;;;;5074188;28;20081;-68
2022/03/16 14:21:08;;;;;;;20.38;12.27;;;;;;;;;;5092647;28;20051;-68
2022/03/16 14:23:37;;;;;;;20.45;13.05;;;;;;;;;;5092632;28;20533;-67
2022/03/16 14:26:04;;;;;;;22.40;16.40;;;;;;;;;;5092744;28;20107;-67
2022/03/16 14:28:31;;;;;;;23.38;14.10;;;;;;;;;;5092148;28;20028;-67
2022/03/16 14:30:57;;;;;;;22.42;14.00;;;14.40;99.90;;;;;;5092515;28;20017;-68
2022/03/16 14:33:30;;;;;;;21.35;13.27;;;14.70;99.90;;;;;;5092460;28;20035;-68
2022/03/16 14:35:59;;;;;;;19.30;13.50;;;15.80;82.80;;;;;;5092286;28;20020;-67